sensor_id;sensor_type;location;lat;lon;timestamp;P1;durP1;ratioP1;P2;durP2;ratioP2
59390;SDS011;53405;57.012;40.984;2023-07-02T00:00:10;14.55;;;11.55;;
59390;SDS011;53405;57.012;40.984;2023-07-02T00:02:38;18.63;;;13.35;;
59390;SDS011;53405;57.012;40.984;2023-07-02T00:05:06;18.63;;;13.30;;
59390;SDS011;53405;57.012;40.984;2023-07-02T00:07:34;15.18;;;11.15;;
59390;SDS011;53405;57.012;40.984;2023-07-02T00:12:31;15.57;;;11.80;;
59390;SDS011;53405;57.012;40.984;2023-07-02T00:15:00;17.25;;;13.48;;
59390;SDS011;53405;57.012;40.984;2023-07-02T00:17:32;18.25;;;13.00;;
59390;SDS011;53405;57.012;40.984;2023-07-02T00:20:00;17.45;;;13.02;;
59390;SDS011;53405;57.012;40.984;2023-07-02T00:22:36;17.27;;;12.80;;
59390;SDS011;53405;57.012;40.984;2023-07-02T00:25:04;16.20;;;12.93;;
59390;SDS011;53405;57.012;40.984;2023-07-02T00:27:31;17.45;;;12.55;;
59390;SDS011;53405;57.012;40.984;2023-07-02T00:29:59;15.93;;;12.18;;
59390;SDS011;53405;57.012;40.984;2023-07-02T00:32:34;15.23;;;11.93;;
59390;SDS011;53405;57.012;40.984;2023-07-02T00:35:02;15.27;;;12.27;;
59390;SDS011;53405;57.012;40.984;2023-07-02T00:37:30;16.33;;;12.13;;
59390;SDS011;53405;57.012;40.984;2023-07-02T00:39:58;15.80;;;12.30;;
59390;SDS011;53405;57.012;40.984;2023-07-02T00:42:31;16.55;;;12.80;;
59390;SDS011;53405;57.012;40.984;2023-07-02T00:44:58;16.67;;;12.77;;
59390;SDS011;53405;57.012;40.984;2023-07-02T00:47:33;16.00;;;12.52;;
59390;SDS011;53405;57.012;40.984;2023-07-02T00:50:02;20.40;;;12.50;;
59390;SDS011;53405;57.012;40.984;2023-07-02T00:52:33;16.33;;;12.55;;
59390;SDS011;53405;57.012;40.984;2023-07-02T00:55:02;14.43;;;11.82;;
59390;SDS011;53405;57.012;40.984;2023-07-02T00:57:32;15.57;;;12.38;;
59390;SDS011;53405;57.012;40.984;2023-07-02T01:00:00;14.02;;;11.20;;
59390;SDS011;53405;57.012;40.984;2023-07-02T01:02:33;16.58;;;11.82;;
59390;SDS011;53405;57.012;40.984;2023-07-02T01:05:01;15.18;;;12.10;;
59390;SDS011;53405;57.012;40.984;2023-07-02T01:07:31;17.23;;;11.70;;
59390;SDS011;53405;57.012;40.984;2023-07-02T01:09:59;15.05;;;12.10;;
59390;SDS011;53405;57.012;40.984;2023-07-02T01:12:26;14.10;;;12.05;;
59390;SDS011;53405;57.012;40.984;2023-07-02T01:14:56;17.63;;;12.60;;
59390;SDS011;53405;57.012;40.984;2023-07-02T01:17:31;14.52;;;12.35;;
59390;SDS011;53405;57.012;40.984;2023-07-02T01:20:09;15.13;;;11.60;;
59390;SDS011;53405;57.012;40.984;2023-07-02T01:22:38;16.77;;;11.85;;
59390;SDS011;53405;57.012;40.984;2023-07-02T01:25:06;14.55;;;12.48;;
59390;SDS011;53405;57.012;40.984;2023-07-02T01:27:36;14.15;;;11.13;;
59390;SDS011;53405;57.012;40.984;2023-07-02T01:30:07;15.15;;;11.45;;
59390;SDS011;53405;57.012;40.984;2023-07-02T01:32:37;14.25;;;11.30;;
59390;SDS011;53405;57.012;40.984;2023-07-02T01:35:05;13.57;;;11.32;;
59390;SDS011;53405;57.012;40.984;2023-07-02T01:37:33;16.50;;;11.52;;
59390;SDS011;53405;57.012;40.984;2023-07-02T01:40:06;16.33;;;12.00;;
59390;SDS011;53405;57.012;40.984;2023-07-02T01:42:35;14.52;;;11.15;;
59390;SDS011;53405;57.012;40.984;2023-07-02T01:45:03;13.63;;;11.38;;
59390;SDS011;53405;57.012;40.984;2023-07-02T01:47:33;13.95;;;11.02;;
59390;SDS011;53405;57.012;40.984;2023-07-02T01:50:01;14.52;;;11.52;;
59390;SDS011;53405;57.012;40.984;2023-07-02T01:52:30;14.13;;;11.32;;
59390;SDS011;53405;57.012;40.984;2023-07-02T01:55:02;14.93;;;12.07;;
59390;SDS011;53405;57.012;40.984;2023-07-02T01:59:58;13.95;;;11.38;;
59390;SDS011;53405;57.012;40.984;2023-07-02T02:02:26;15.65;;;12.20;;
59390;SDS011;53405;57.012;40.984;2023-07-02T02:04:54;16.27;;;11.68;;
59390;SDS011;53405;57.012;40.984;2023-07-02T02:07:23;14.73;;;12.40;;
59390;SDS011;53405;57.012;40.984;2023-07-02T02:09:51;18.52;;;12.70;;
59390;SDS011;53405;57.012;40.984;2023-07-02T02:12:19;14.82;;;11.88;;
59390;SDS011;53405;57.012;40.984;2023-07-02T02:14:47;15.75;;;12.32;;
59390;SDS011;53405;57.012;40.984;2023-07-02T02:17:15;15.90;;;12.80;;
59390;SDS011;53405;57.012;40.984;2023-07-02T02:19:43;15.15;;;12.35;;
59390;SDS011;53405;57.012;40.984;2023-07-02T02:22:11;15.65;;;12.65;;
59390;SDS011;53405;57.012;40.984;2023-07-02T02:24:39;15.15;;;12.70;;
59390;SDS011;53405;57.012;40.984;2023-07-02T02:27:07;16.67;;;12.93;;
59390;SDS011;53405;57.012;40.984;2023-07-02T02:29:34;16.23;;;13.07;;
59390;SDS011;53405;57.012;40.984;2023-07-02T02:32:03;15.07;;;12.15;;
59390;SDS011;53405;57.012;40.984;2023-07-02T02:34:30;14.70;;;12.30;;
59390;SDS011;53405;57.012;40.984;2023-07-02T02:36:58;16.63;;;12.45;;
59390;SDS011;53405;57.012;40.984;2023-07-02T02:39:26;14.48;;;11.82;;
59390;SDS011;53405;57.012;40.984;2023-07-02T02:41:54;14.98;;;12.38;;
59390;SDS011;53405;57.012;40.984;2023-07-02T02:44:21;14.73;;;12.40;;
59390;SDS011;53405;57.012;40.984;2023-07-02T02:46:49;13.52;;;12.00;;
59390;SDS011;53405;57.012;40.984;2023-07-02T02:49:17;16.17;;;12.45;;
59390;SDS011;53405;57.012;40.984;2023-07-02T02:51:44;14.85;;;12.23;;
59390;SDS011;53405;57.012;40.984;2023-07-02T02:54:12;17.50;;;12.63;;
59390;SDS011;53405;57.012;40.984;2023-07-02T02:56:40;17.70;;;13.05;;
59390;SDS011;53405;57.012;40.984;2023-07-02T02:59:09;16.00;;;13.35;;
59390;SDS011;53405;57.012;40.984;2023-07-02T03:01:36;17.50;;;13.63;;
59390;SDS011;53405;57.012;40.984;2023-07-02T03:04:04;17.45;;;13.48;;
59390;SDS011;53405;57.012;40.984;2023-07-02T03:06:35;15.52;;;13.93;;
59390;SDS011;53405;57.012;40.984;2023-07-02T03:09:02;18.05;;;13.60;;
59390;SDS011;53405;57.012;40.984;2023-07-02T03:11:30;18.48;;;13.65;;
59390;SDS011;53405;57.012;40.984;2023-07-02T03:13:57;16.60;;;13.30;;
59390;SDS011;53405;57.012;40.984;2023-07-02T03:16:25;16.35;;;12.90;;
59390;SDS011;53405;57.012;40.984;2023-07-02T03:18:53;17.90;;;14.40;;
59390;SDS011;53405;57.012;40.984;2023-07-02T03:21:21;16.50;;;13.27;;
59390;SDS011;53405;57.012;40.984;2023-07-02T03:23:48;16.10;;;13.32;;
59390;SDS011;53405;57.012;40.984;2023-07-02T03:26:16;15.45;;;12.65;;
59390;SDS011;53405;57.012;40.984;2023-07-02T03:28:43;17.23;;;14.02;;
59390;SDS011;53405;57.012;40.984;2023-07-02T03:31:11;15.32;;;13.63;;
59390;SDS011;53405;57.012;40.984;2023-07-02T03:33:39;15.57;;;13.35;;
59390;SDS011;53405;57.012;40.984;2023-07-02T03:36:06;16.75;;;14.20;;
59390;SDS011;53405;57.012;40.984;2023-07-02T03:38:34;18.40;;;13.90;;
59390;SDS011;53405;57.012;40.984;2023-07-02T03:41:02;17.65;;;14.25;;
59390;SDS011;53405;57.012;40.984;2023-07-02T03:43:29;18.70;;;14.55;;
59390;SDS011;53405;57.012;40.984;2023-07-02T03:45:57;18.52;;;14.45;;
59390;SDS011;53405;57.012;40.984;2023-07-02T03:48:24;17.58;;;14.43;;
59390;SDS011;53405;57.012;40.984;2023-07-02T03:50:52;18.27;;;14.75;;
59390;SDS011;53405;57.012;40.984;2023-07-02T03:53:20;20.60;;;14.85;;
59390;SDS011;53405;57.012;40.984;2023-07-02T03:55:47;18.90;;;14.90;;
59390;SDS011;53405;57.012;40.984;2023-07-02T03:58:15;17.23;;;13.80;;
59390;SDS011;53405;57.012;40.984;2023-07-02T04:00:43;15.82;;;14.18;;
59390;SDS011;53405;57.012;40.984;2023-07-02T04:03:11;16.33;;;13.80;;
59390;SDS011;53405;57.012;40.984;2023-07-02T04:05:38;14.55;;;12.93;;
59390;SDS011;53405;57.012;40.984;2023-07-02T04:08:06;16.98;;;13.65;;
59390;SDS011;53405;57.012;40.984;2023-07-02T04:10:34;17.70;;;12.57;;
59390;SDS011;53405;57.012;40.984;2023-07-02T04:13:01;18.42;;;13.63;;
59390;SDS011;53405;57.012;40.984;2023-07-02T04:15:30;17.33;;;13.02;;
59390;SDS011;53405;57.012;40.984;2023-07-02T04:17:57;15.07;;;12.85;;
59390;SDS011;53405;57.012;40.984;2023-07-02T04:20:26;15.38;;;12.98;;
59390;SDS011;53405;57.012;40.984;2023-07-02T04:22:56;16.20;;;13.55;;
59390;SDS011;53405;57.012;40.984;2023-07-02T04:25:23;15.63;;;12.98;;
59390;SDS011;53405;57.012;40.984;2023-07-02T04:27:51;13.80;;;12.30;;
59390;SDS011;53405;57.012;40.984;2023-07-02T04:30:23;15.73;;;13.05;;
59390;SDS011;53405;57.012;40.984;2023-07-02T04:32:52;15.50;;;13.00;;
59390;SDS011;53405;57.012;40.984;2023-07-02T04:35:19;15.00;;;12.93;;
59390;SDS011;53405;57.012;40.984;2023-07-02T04:37:47;16.48;;;13.05;;
59390;SDS011;53405;57.012;40.984;2023-07-02T04:40:14;13.85;;;11.70;;
59390;SDS011;53405;57.012;40.984;2023-07-02T04:42:42;16.67;;;12.90;;
59390;SDS011;53405;57.012;40.984;2023-07-02T04:45:26;14.45;;;12.45;;
59390;SDS011;53405;57.012;40.984;2023-07-02T04:47:59;13.85;;;12.00;;
59390;SDS011;53405;57.012;40.984;2023-07-02T04:50:27;15.68;;;12.52;;
59390;SDS011;53405;57.012;40.984;2023-07-02T04:52:55;14.05;;;12.10;;
59390;SDS011;53405;57.012;40.984;2023-07-02T04:55:23;14.05;;;12.13;;
59390;SDS011;53405;57.012;40.984;2023-07-02T04:57:51;16.27;;;11.60;;
59390;SDS011;53405;57.012;40.984;2023-07-02T05:00:19;14.23;;;11.43;;
59390;SDS011;53405;57.012;40.984;2023-07-02T05:02:46;15.07;;;11.77;;
59390;SDS011;53405;57.012;40.984;2023-07-02T05:05:15;12.98;;;10.57;;
59390;SDS011;53405;57.012;40.984;2023-07-02T05:07:43;13.20;;;10.35;;
59390;SDS011;53405;57.012;40.984;2023-07-02T05:10:11;14.20;;;10.93;;
59390;SDS011;53405;57.012;40.984;2023-07-02T05:12:38;13.98;;;10.18;;
59390;SDS011;53405;57.012;40.984;2023-07-02T05:15:06;13.00;;;10.52;;
59390;SDS011;53405;57.012;40.984;2023-07-02T05:17:34;13.63;;;11.00;;
59390;SDS011;53405;57.012;40.984;2023-07-02T05:20:03;14.35;;;10.77;;
59390;SDS011;53405;57.012;40.984;2023-07-02T05:22:32;13.75;;;10.18;;
59390;SDS011;53405;57.012;40.984;2023-07-02T05:24:59;12.55;;;10.77;;
59390;SDS011;53405;57.012;40.984;2023-07-02T05:27:33;14.35;;;11.23;;
59390;SDS011;53405;57.012;40.984;2023-07-02T05:30:01;12.30;;;10.77;;
59390;SDS011;53405;57.012;40.984;2023-07-02T05:32:33;13.40;;;11.35;;
59390;SDS011;53405;57.012;40.984;2023-07-02T05:35:01;12.90;;;11.10;;
59390;SDS011;53405;57.012;40.984;2023-07-02T05:37:30;16.27;;;10.98;;
59390;SDS011;53405;57.012;40.984;2023-07-02T05:39:58;12.15;;;10.60;;
59390;SDS011;53405;57.012;40.984;2023-07-02T05:42:25;48.25;;;38.08;;
59390;SDS011;53405;57.012;40.984;2023-07-02T05:44:53;14.48;;;11.95;;
59390;SDS011;53405;57.012;40.984;2023-07-02T05:47:21;17.52;;;15.10;;
59390;SDS011;53405;57.012;40.984;2023-07-02T05:49:48;15.80;;;13.43;;
59390;SDS011;53405;57.012;40.984;2023-07-02T05:52:16;13.73;;;10.45;;
59390;SDS011;53405;57.012;40.984;2023-07-02T05:54:44;13.75;;;11.18;;
59390;SDS011;53405;57.012;40.984;2023-07-02T05:57:11;13.20;;;10.55;;
59390;SDS011;53405;57.012;40.984;2023-07-02T05:59:39;12.25;;;10.48;;
59390;SDS011;53405;57.012;40.984;2023-07-02T06:02:06;11.70;;;10.32;;
59390;SDS011;53405;57.012;40.984;2023-07-02T06:04:34;13.15;;;11.18;;
59390;SDS011;53405;57.012;40.984;2023-07-02T06:07:01;12.52;;;9.77;;
59390;SDS011;53405;57.012;40.984;2023-07-02T06:09:29;14.73;;;10.70;;
59390;SDS011;53405;57.012;40.984;2023-07-02T06:11:57;12.57;;;10.02;;
59390;SDS011;53405;57.012;40.984;2023-07-02T06:14:25;11.25;;;9.63;;
59390;SDS011;53405;57.012;40.984;2023-07-02T06:16:52;11.38;;;9.80;;
59390;SDS011;53405;57.012;40.984;2023-07-02T06:19:20;12.35;;;10.43;;
59390;SDS011;53405;57.012;40.984;2023-07-02T06:21:47;11.73;;;9.55;;
59390;SDS011;53405;57.012;40.984;2023-07-02T06:24:15;11.82;;;9.80;;
59390;SDS011;53405;57.012;40.984;2023-07-02T06:26:43;12.02;;;9.25;;
59390;SDS011;53405;57.012;40.984;2023-07-02T06:29:10;12.07;;;9.40;;
59390;SDS011;53405;57.012;40.984;2023-07-02T06:31:38;11.95;;;9.70;;
59390;SDS011;53405;57.012;40.984;2023-07-02T06:34:05;13.88;;;9.88;;
59390;SDS011;53405;57.012;40.984;2023-07-02T06:36:34;13.50;;;9.05;;
59390;SDS011;53405;57.012;40.984;2023-07-02T06:39:02;10.95;;;9.10;;
59390;SDS011;53405;57.012;40.984;2023-07-02T06:41:30;10.75;;;9.05;;
59390;SDS011;53405;57.012;40.984;2023-07-02T06:43:57;12.30;;;9.73;;
59390;SDS011;53405;57.012;40.984;2023-07-02T06:46:25;15.05;;;8.90;;
59390;SDS011;53405;57.012;40.984;2023-07-02T06:48:52;13.90;;;9.27;;
59390;SDS011;53405;57.012;40.984;2023-07-02T06:51:20;11.32;;;9.30;;
59390;SDS011;53405;57.012;40.984;2023-07-02T06:53:48;12.13;;;8.60;;
59390;SDS011;53405;57.012;40.984;2023-07-02T06:56:16;11.00;;;8.70;;
59390;SDS011;53405;57.012;40.984;2023-07-02T06:58:44;10.82;;;8.65;;
59390;SDS011;53405;57.012;40.984;2023-07-02T07:01:12;10.85;;;8.80;;
59390;SDS011;53405;57.012;40.984;2023-07-02T07:03:40;10.23;;;8.85;;
59390;SDS011;53405;57.012;40.984;2023-07-02T07:06:07;10.52;;;8.85;;
59390;SDS011;53405;57.012;40.984;2023-07-02T07:08:38;10.88;;;9.00;;
59390;SDS011;53405;57.012;40.984;2023-07-02T07:11:08;11.90;;;9.20;;
59390;SDS011;53405;57.012;40.984;2023-07-02T07:13:36;12.20;;;8.98;;
59390;SDS011;53405;57.012;40.984;2023-07-02T07:16:04;10.48;;;7.68;;
59390;SDS011;53405;57.012;40.984;2023-07-02T07:18:31;11.05;;;7.95;;
59390;SDS011;53405;57.012;40.984;2023-07-02T07:20:59;11.32;;;8.05;;
59390;SDS011;53405;57.012;40.984;2023-07-02T07:23:27;11.60;;;7.53;;
59390;SDS011;53405;57.012;40.984;2023-07-02T07:25:55;10.07;;;7.85;;
59390;SDS011;53405;57.012;40.984;2023-07-02T07:28:22;10.73;;;7.82;;
59390;SDS011;53405;57.012;40.984;2023-07-02T07:30:50;9.85;;;7.78;;
59390;SDS011;53405;57.012;40.984;2023-07-02T07:33:17;11.05;;;8.95;;
59390;SDS011;53405;57.012;40.984;2023-07-02T07:35:45;9.20;;;7.40;;
59390;SDS011;53405;57.012;40.984;2023-07-02T07:38:13;11.50;;;7.35;;
59390;SDS011;53405;57.012;40.984;2023-07-02T07:40:44;9.23;;;7.63;;
59390;SDS011;53405;57.012;40.984;2023-07-02T07:43:11;10.43;;;7.35;;
59390;SDS011;53405;57.012;40.984;2023-07-02T07:45:40;11.20;;;7.80;;
59390;SDS011;53405;57.012;40.984;2023-07-02T07:48:08;9.27;;;7.63;;
59390;SDS011;53405;57.012;40.984;2023-07-02T07:50:35;8.70;;;6.90;;
59390;SDS011;53405;57.012;40.984;2023-07-02T07:53:03;10.00;;;6.85;;
59390;SDS011;53405;57.012;40.984;2023-07-02T07:55:30;8.23;;;6.97;;
59390;SDS011;53405;57.012;40.984;2023-07-02T07:57:58;11.02;;;6.65;;
59390;SDS011;53405;57.012;40.984;2023-07-02T08:00:26;9.57;;;6.68;;
59390;SDS011;53405;57.012;40.984;2023-07-02T08:02:54;8.30;;;6.95;;
59390;SDS011;53405;57.012;40.984;2023-07-02T08:05:22;11.43;;;6.80;;
59390;SDS011;53405;57.012;40.984;2023-07-02T08:07:50;10.23;;;6.80;;
59390;SDS011;53405;57.012;40.984;2023-07-02T08:10:18;13.02;;;6.97;;
59390;SDS011;53405;57.012;40.984;2023-07-02T08:12:45;9.93;;;6.40;;
59390;SDS011;53405;57.012;40.984;2023-07-02T08:15:14;11.88;;;7.05;;
59390;SDS011;53405;57.012;40.984;2023-07-02T08:17:42;9.95;;;6.50;;
59390;SDS011;53405;57.012;40.984;2023-07-02T08:20:10;8.90;;;5.72;;
59390;SDS011;53405;57.012;40.984;2023-07-02T08:22:39;10.13;;;6.03;;
59390;SDS011;53405;57.012;40.984;2023-07-02T08:25:07;8.38;;;5.57;;
59390;SDS011;53405;57.012;40.984;2023-07-02T08:27:35;9.65;;;5.75;;
59390;SDS011;53405;57.012;40.984;2023-07-02T08:30:03;8.45;;;5.40;;
59390;SDS011;53405;57.012;40.984;2023-07-02T08:32:32;6.70;;;5.10;;
59390;SDS011;53405;57.012;40.984;2023-07-02T08:35:00;9.55;;;5.28;;
59390;SDS011;53405;57.012;40.984;2023-07-02T08:37:30;7.72;;;5.25;;
59390;SDS011;53405;57.012;40.984;2023-07-02T08:39:58;8.18;;;5.13;;
59390;SDS011;53405;57.012;40.984;2023-07-02T08:42:26;6.35;;;4.72;;
59390;SDS011;53405;57.012;40.984;2023-07-02T08:44:56;9.57;;;5.75;;
59390;SDS011;53405;57.012;40.984;2023-07-02T08:47:30;7.55;;;5.07;;
59390;SDS011;53405;57.012;40.984;2023-07-02T08:49:58;10.23;;;5.63;;
59390;SDS011;53405;57.012;40.984;2023-07-02T08:52:26;8.27;;;5.55;;
59390;SDS011;53405;57.012;40.984;2023-07-02T08:54:54;9.02;;;5.40;;
59390;SDS011;53405;57.012;40.984;2023-07-02T08:57:21;6.78;;;5.05;;
59390;SDS011;53405;57.012;40.984;2023-07-02T08:59:49;8.55;;;5.30;;
59390;SDS011;53405;57.012;40.984;2023-07-02T09:02:29;6.35;;;5.05;;
59390;SDS011;53405;57.012;40.984;2023-07-02T09:05:01;8.25;;;5.15;;
59390;SDS011;53405;57.012;40.984;2023-07-02T09:07:32;11.88;;;5.30;;
59390;SDS011;53405;57.012;40.984;2023-07-02T09:10:34;6.73;;;4.50;;
59390;SDS011;53405;57.012;40.984;2023-07-02T09:13:07;7.13;;;4.63;;
59390;SDS011;53405;57.012;40.984;2023-07-02T09:15:40;8.02;;;5.03;;
59390;SDS011;53405;57.012;40.984;2023-07-02T09:20:49;8.80;;;4.53;;
59390;SDS011;53405;57.012;40.984;2023-07-02T09:23:18;7.55;;;4.30;;
59390;SDS011;53405;57.012;40.984;2023-07-02T09:25:45;8.35;;;4.50;;
59390;SDS011;53405;57.012;40.984;2023-07-02T09:28:17;6.68;;;4.40;;
59390;SDS011;53405;57.012;40.984;2023-07-02T09:30:50;7.13;;;4.50;;
59390;SDS011;53405;57.012;40.984;2023-07-02T09:33:19;6.95;;;4.60;;
59390;SDS011;53405;57.012;40.984;2023-07-02T09:35:47;7.25;;;4.60;;
59390;SDS011;53405;57.012;40.984;2023-07-02T09:38:15;8.88;;;5.00;;
59390;SDS011;53405;57.012;40.984;2023-07-02T09:40:44;7.03;;;4.70;;
59390;SDS011;53405;57.012;40.984;2023-07-02T09:43:17;8.23;;;5.35;;
59390;SDS011;53405;57.012;40.984;2023-07-02T09:45:50;5.85;;;4.35;;
59390;SDS011;53405;57.012;40.984;2023-07-02T09:48:20;7.13;;;4.70;;
59390;SDS011;53405;57.012;40.984;2023-07-02T09:50:52;8.43;;;4.70;;
59390;SDS011;53405;57.012;40.984;2023-07-02T09:53:21;12.15;;;4.53;;
59390;SDS011;53405;57.012;40.984;2023-07-02T09:55:49;7.75;;;4.50;;
59390;SDS011;53405;57.012;40.984;2023-07-02T09:58:16;7.43;;;4.05;;
59390;SDS011;53405;57.012;40.984;2023-07-02T10:00:44;8.73;;;4.53;;
59390;SDS011;53405;57.012;40.984;2023-07-02T10:03:12;7.57;;;5.00;;
59390;SDS011;53405;57.012;40.984;2023-07-02T10:05:39;10.60;;;4.90;;
59390;SDS011;53405;57.012;40.984;2023-07-02T10:08:14;9.98;;;5.88;;
59390;SDS011;53405;57.012;40.984;2023-07-02T10:10:48;10.23;;;6.65;;
59390;SDS011;53405;57.012;40.984;2023-07-02T10:13:26;7.57;;;4.55;;
59390;SDS011;53405;57.012;40.984;2023-07-02T10:16:04;6.35;;;4.20;;
59390;SDS011;53405;57.012;40.984;2023-07-02T10:18:32;7.65;;;4.70;;
59390;SDS011;53405;57.012;40.984;2023-07-02T10:21:13;9.60;;;4.78;;
59390;SDS011;53405;57.012;40.984;2023-07-02T10:23:43;9.18;;;4.88;;
59390;SDS011;53405;57.012;40.984;2023-07-02T10:26:15;7.80;;;4.60;;
59390;SDS011;53405;57.012;40.984;2023-07-02T10:28:58;7.95;;;5.25;;
59390;SDS011;53405;57.012;40.984;2023-07-02T10:31:33;7.85;;;4.72;;
59390;SDS011;53405;57.012;40.984;2023-07-02T10:34:01;8.32;;;5.20;;
59390;SDS011;53405;57.012;40.984;2023-07-02T10:36:28;9.15;;;4.85;;
59390;SDS011;53405;57.012;40.984;2023-07-02T10:39:00;9.75;;;4.55;;
59390;SDS011;53405;57.012;40.984;2023-07-02T10:41:34;9.17;;;4.70;;
59390;SDS011;53405;57.012;40.984;2023-07-02T10:44:06;8.82;;;4.97;;
59390;SDS011;53405;57.012;40.984;2023-07-02T10:46:42;8.60;;;5.63;;
59390;SDS011;53405;57.012;40.984;2023-07-02T10:49:14;8.07;;;5.20;;
59390;SDS011;53405;57.012;40.984;2023-07-02T10:51:44;10.48;;;5.10;;
59390;SDS011;53405;57.012;40.984;2023-07-02T10:54:14;8.35;;;5.18;;
59390;SDS011;53405;57.012;40.984;2023-07-02T10:56:41;10.35;;;5.22;;
59390;SDS011;53405;57.012;40.984;2023-07-02T10:59:09;7.88;;;4.88;;
59390;SDS011;53405;57.012;40.984;2023-07-02T11:01:37;7.32;;;4.78;;
59390;SDS011;53405;57.012;40.984;2023-07-02T11:04:05;11.35;;;5.85;;
59390;SDS011;53405;57.012;40.984;2023-07-02T11:06:39;8.00;;;5.07;;
59390;SDS011;53405;57.012;40.984;2023-07-02T11:09:16;8.05;;;5.13;;
59390;SDS011;53405;57.012;40.984;2023-07-02T11:11:54;8.38;;;5.70;;
59390;SDS011;53405;57.012;40.984;2023-07-02T11:14:37;9.27;;;5.45;;
59390;SDS011;53405;57.012;40.984;2023-07-02T11:17:06;9.15;;;5.78;;
59390;SDS011;53405;57.012;40.984;2023-07-02T11:19:34;10.35;;;5.88;;
59390;SDS011;53405;57.012;40.984;2023-07-02T11:22:02;10.80;;;5.60;;
59390;SDS011;53405;57.012;40.984;2023-07-02T11:24:32;9.10;;;5.63;;
59390;SDS011;53405;57.012;40.984;2023-07-02T11:27:03;8.52;;;5.53;;
59390;SDS011;53405;57.012;40.984;2023-07-02T11:29:33;7.63;;;5.10;;
59390;SDS011;53405;57.012;40.984;2023-07-02T11:34:36;10.60;;;5.80;;
59390;SDS011;53405;57.012;40.984;2023-07-02T11:37:07;14.15;;;5.70;;
59390;SDS011;53405;57.012;40.984;2023-07-02T11:39:35;10.85;;;5.10;;
59390;SDS011;53405;57.012;40.984;2023-07-02T11:42:03;9.75;;;5.30;;
59390;SDS011;53405;57.012;40.984;2023-07-02T11:44:30;11.32;;;5.10;;
59390;SDS011;53405;57.012;40.984;2023-07-02T11:46:58;8.50;;;5.70;;
59390;SDS011;53405;57.012;40.984;2023-07-02T11:49:26;17.58;;;12.27;;
59390;SDS011;53405;57.012;40.984;2023-07-02T11:51:53;16.25;;;9.95;;
59390;SDS011;53405;57.012;40.984;2023-07-02T11:54:21;11.95;;;5.32;;
59390;SDS011;53405;57.012;40.984;2023-07-02T11:56:48;8.52;;;5.30;;
59390;SDS011;53405;57.012;40.984;2023-07-02T11:59:16;8.82;;;5.35;;
59390;SDS011;53405;57.012;40.984;2023-07-02T12:01:44;10.60;;;5.50;;
59390;SDS011;53405;57.012;40.984;2023-07-02T12:04:14;11.50;;;5.10;;
59390;SDS011;53405;57.012;40.984;2023-07-02T12:06:41;9.07;;;5.03;;
59390;SDS011;53405;57.012;40.984;2023-07-02T12:09:09;8.52;;;4.85;;
59390;SDS011;53405;57.012;40.984;2023-07-02T12:11:38;10.45;;;5.20;;
59390;SDS011;53405;57.012;40.984;2023-07-02T12:14:06;10.53;;;6.20;;
59390;SDS011;53405;57.012;40.984;2023-07-02T12:16:33;9.68;;;5.70;;
59390;SDS011;53405;57.012;40.984;2023-07-02T12:19:01;10.15;;;5.72;;
59390;SDS011;53405;57.012;40.984;2023-07-02T12:21:29;10.17;;;5.57;;
59390;SDS011;53405;57.012;40.984;2023-07-02T12:23:57;9.73;;;5.35;;
59390;SDS011;53405;57.012;40.984;2023-07-02T12:26:24;11.48;;;5.00;;
59390;SDS011;53405;57.012;40.984;2023-07-02T12:28:52;9.27;;;4.95;;
59390;SDS011;53405;57.012;40.984;2023-07-02T12:31:19;9.27;;;5.30;;
59390;SDS011;53405;57.012;40.984;2023-07-02T12:33:47;8.10;;;5.43;;
59390;SDS011;53405;57.012;40.984;2023-07-02T12:36:14;7.43;;;4.75;;
59390;SDS011;53405;57.012;40.984;2023-07-02T12:38:42;7.38;;;5.22;;
59390;SDS011;53405;57.012;40.984;2023-07-02T12:41:09;6.45;;;4.28;;
59390;SDS011;53405;57.012;40.984;2023-07-02T12:43:37;11.13;;;5.30;;
59390;SDS011;53405;57.012;40.984;2023-07-02T12:46:05;8.35;;;4.72;;
59390;SDS011;53405;57.012;40.984;2023-07-02T12:48:33;10.00;;;5.18;;
59390;SDS011;53405;57.012;40.984;2023-07-02T12:51:01;7.90;;;5.20;;
59390;SDS011;53405;57.012;40.984;2023-07-02T12:53:28;7.32;;;5.07;;
59390;SDS011;53405;57.012;40.984;2023-07-02T12:55:56;11.50;;;6.68;;
59390;SDS011;53405;57.012;40.984;2023-07-02T12:58:23;8.88;;;6.05;;
59390;SDS011;53405;57.012;40.984;2023-07-02T13:00:51;11.25;;;5.30;;
59390;SDS011;53405;57.012;40.984;2023-07-02T13:03:19;7.45;;;4.85;;
59390;SDS011;53405;57.012;40.984;2023-07-02T13:05:47;8.17;;;5.60;;
59390;SDS011;53405;57.012;40.984;2023-07-02T13:08:15;9.07;;;4.93;;
59390;SDS011;53405;57.012;40.984;2023-07-02T13:10:43;9.65;;;5.10;;
59390;SDS011;53405;57.012;40.984;2023-07-02T13:13:11;10.73;;;5.70;;
59390;SDS011;53405;57.012;40.984;2023-07-02T13:15:47;8.50;;;5.40;;
59390;SDS011;53405;57.012;40.984;2023-07-02T13:18:15;9.93;;;5.03;;
59390;SDS011;53405;57.012;40.984;2023-07-02T13:20:43;9.45;;;5.03;;
59390;SDS011;53405;57.012;40.984;2023-07-02T13:23:10;11.93;;;5.47;;
59390;SDS011;53405;57.012;40.984;2023-07-02T13:25:38;10.02;;;5.45;;
59390;SDS011;53405;57.012;40.984;2023-07-02T13:28:05;10.40;;;5.88;;
59390;SDS011;53405;57.012;40.984;2023-07-02T13:33:02;8.45;;;4.93;;
59390;SDS011;53405;57.012;40.984;2023-07-02T13:35:29;9.77;;;5.15;;
59390;SDS011;53405;57.012;40.984;2023-07-02T13:40:26;11.93;;;5.75;;
59390;SDS011;53405;57.012;40.984;2023-07-02T13:42:54;7.32;;;5.00;;
59390;SDS011;53405;57.012;40.984;2023-07-02T13:45:23;9.27;;;4.88;;
59390;SDS011;53405;57.012;40.984;2023-07-02T13:47:50;8.80;;;5.00;;
59390;SDS011;53405;57.012;40.984;2023-07-02T13:50:18;8.80;;;4.95;;
59390;SDS011;53405;57.012;40.984;2023-07-02T13:52:46;11.17;;;5.10;;
59390;SDS011;53405;57.012;40.984;2023-07-02T13:55:14;10.53;;;4.70;;
59390;SDS011;53405;57.012;40.984;2023-07-02T13:57:42;9.10;;;4.90;;
59390;SDS011;53405;57.012;40.984;2023-07-02T14:00:10;9.52;;;4.80;;
59390;SDS011;53405;57.012;40.984;2023-07-02T14:02:38;9.77;;;5.10;;
59390;SDS011;53405;57.012;40.984;2023-07-02T14:05:05;10.07;;;5.13;;
59390;SDS011;53405;57.012;40.984;2023-07-02T14:07:33;9.67;;;4.37;;
59390;SDS011;53405;57.012;40.984;2023-07-02T14:10:01;10.02;;;4.72;;
59390;SDS011;53405;57.012;40.984;2023-07-02T14:12:30;8.52;;;4.75;;
59390;SDS011;53405;57.012;40.984;2023-07-02T14:14:57;9.38;;;4.10;;
59390;SDS011;53405;57.012;40.984;2023-07-02T14:17:25;8.95;;;4.75;;
59390;SDS011;53405;57.012;40.984;2023-07-02T14:19:53;9.25;;;5.10;;
59390;SDS011;53405;57.012;40.984;2023-07-02T14:22:20;8.52;;;5.20;;
59390;SDS011;53405;57.012;40.984;2023-07-02T14:24:48;7.13;;;4.63;;
59390;SDS011;53405;57.012;40.984;2023-07-02T14:27:16;9.63;;;4.75;;
59390;SDS011;53405;57.012;40.984;2023-07-02T14:29:43;9.55;;;5.05;;
59390;SDS011;53405;57.012;40.984;2023-07-02T14:32:13;8.43;;;4.60;;
59390;SDS011;53405;57.012;40.984;2023-07-02T14:34:41;8.20;;;4.60;;
59390;SDS011;53405;57.012;40.984;2023-07-02T14:37:09;7.70;;;4.30;;
59390;SDS011;53405;57.012;40.984;2023-07-02T14:39:37;8.93;;;4.87;;
59390;SDS011;53405;57.012;40.984;2023-07-02T14:42:05;10.27;;;4.80;;
59390;SDS011;53405;57.012;40.984;2023-07-02T14:44:33;14.63;;;8.82;;